createdAt,value
2022-10-05T00:00:26.950Z,75.09
2022-10-05T00:01:01.927Z,75.23
2022-10-05T00:01:36.514Z,75.20
2022-10-05T00:02:17.318Z,75.36
2022-10-05T00:02:50.359Z,75.43
2022-10-05T00:03:22.784Z,75.71
2022-10-05T00:04:06.443Z,75.68
2022-10-05T00:04:38.942Z,75.92
2022-10-05T00:05:24.209Z,75.66
2022-10-05T00:05:57.384Z,75.70
2022-10-05T00:06:30.490Z,75.89
2022-10-05T00:07:17.267Z,75.53
2022-10-05T00:07:49.342Z,75.34
2022-10-05T00:08:25.581Z,75.25
2022-10-05T00:08:57.629Z,75.62
2022-10-05T00:09:31.872Z,75.99
2022-10-05T00:10:13.839Z,76.29
2022-10-05T00:10:46.729Z,76.22
2022-10-05T00:11:18.722Z,75.88
2022-10-05T00:11:51.575Z,75.93
2022-10-05T00:12:25.117Z,76.04
2022-10-05T00:12:57.012Z,75.97
2022-10-05T00:13:30.852Z,75.70
2022-10-05T00:14:14.706Z,75.64
2022-10-05T00:14:49.479Z,75.86
2022-10-05T00:15:22.472Z,75.78
2022-10-05T00:16:09.602Z,75.53
2022-10-05T00:16:41.661Z,75.62
2022-10-05T00:17:23.087Z,75.96
2022-10-05T00:17:55.714Z,75.80
2022-10-05T00:18:27.545Z,75.50
2022-10-05T00:18:59.827Z,75.70
2022-10-05T00:19:35.593Z,75.83
2022-10-05T00:20:23.513Z,76.23
2022-10-05T00:20:55.371Z,76.29
2022-10-05T00:21:28.973Z,75.95
2022-10-05T00:22:17.226Z,76.14
2022-10-05T00:23:01.090Z,76.15
2022-10-05T00:23:32.922Z,76.08
2022-10-05T00:24:10.367Z,75.92
2022-10-05T00:24:42.478Z,75.72
2022-10-05T00:25:19.043Z,75.38
2022-10-05T00:25:51.160Z,75.10
2022-10-05T00:26:25.367Z,74.82
2022-10-05T00:27:01.545Z,74.68
2022-10-05T00:27:37.529Z,74.40
2022-10-05T00:28:17.780Z,74.16
2022-10-05T00:28:50.333Z,74.92
2022-10-05T00:29:23.343Z,75.42
2022-10-05T00:29:59.743Z,76.27
2022-10-05T00:30:33.912Z,77.05
2022-10-05T00:31:16.670Z,76.78
2022-10-05T00:31:50.067Z,76.14
2022-10-05T00:32:21.901Z,75.56
2022-10-05T00:32:58.688Z,75.24
2022-10-05T00:33:32.005Z,75.09
2022-10-05T00:34:04.257Z,75.08
2022-10-05T00:34:36.445Z,75.07
2022-10-05T00:35:09.601Z,74.78
2022-10-05T00:35:41.481Z,74.53
2022-10-05T00:36:14.447Z,74.85
2022-10-05T00:36:46.616Z,75.10
2022-10-05T00:37:18.670Z,75.16
2022-10-05T00:37:55.356Z,75.55
2022-10-05T00:38:28.440Z,75.98
2022-10-05T00:39:02.021Z,76.33
2022-10-05T00:39:36.146Z,76.44
2022-10-05T00:40:37.560Z,76.14
2022-10-05T00:41:22.362Z,76.29
2022-10-05T00:42:13.971Z,76.33
2022-10-05T00:43:05.532Z,75.95
2022-10-05T00:44:04.203Z,75.72
2022-10-05T00:44:36.299Z,75.44
2022-10-05T00:45:13.822Z,75.13
2022-10-05T00:46:07.860Z,75.18
2022-10-05T00:47:12.618Z,75.15
2022-10-05T00:48:02.409Z,74.56
2022-10-05T00:48:40.122Z,74.28
2022-10-05T00:49:33.681Z,74.17
2022-10-05T00:50:21.144Z,74.23
2022-10-05T00:50:52.999Z,74.86
2022-10-05T00:51:28.818Z,74.70
2022-10-05T00:52:25.935Z,74.65
2022-10-05T00:53:24.515Z,74.44
2022-10-05T00:54:02.931Z,74.93
2022-10-05T00:54:47.388Z,74.50
2022-10-05T00:55:44.009Z,74.47
2022-10-05T00:56:51.740Z,74.61
2022-10-05T00:57:35.297Z,75.33
2022-10-05T00:58:15.817Z,76.41
2022-10-05T00:59:47.502Z,75.98
2022-10-05T01:00:25.294Z,77.46
2022-10-05T01:01:11.818Z,77.88
2022-10-05T01:02:16.414Z,77.68
2022-10-05T01:03:22.790Z,77.21
2022-10-05T01:04:19.448Z,76.40
2022-10-05T01:05:07.805Z,76.60
2022-10-05T01:06:12.742Z,76.61
2022-10-05T01:07:12.265Z,76.17
2022-10-05T01:07:49.973Z,75.54
2022-10-05T01:08:50.825Z,75.15
2022-10-05T01:09:32.927Z,75.67
2022-10-05T01:10:10.776Z,75.51
2022-10-05T01:10:48.361Z,75.26
2022-10-05T01:11:29.225Z,75.68
2022-10-05T01:12:16.338Z,76.89
2022-10-05T01:13:11.717Z,77.03
2022-10-05T01:14:05.683Z,77.23
2022-10-05T01:15:05.202Z,76.82
2022-10-05T01:15:45.121Z,75.51
2022-10-05T01:16:30.957Z,75.24
2022-10-05T01:17:20.424Z,75.05
2022-10-05T01:18:11.028Z,75.59
2022-10-05T01:19:16.616Z,75.65
2022-10-05T01:20:15.819Z,75.87
2022-10-05T01:20:56.513Z,76.22
2022-10-05T01:21:33.325Z,76.82
2022-10-05T01:22:30.058Z,77.07
2022-10-05T01:23:23.645Z,76.97
2022-10-05T01:24:07.500Z,77.32
2022-10-05T01:25:26.956Z,78.32
2022-10-05T01:26:23.518Z,78.41
2022-10-05T01:27:19.052Z,77.64
2022-10-05T01:28:13.053Z,76.28
2022-10-05T01:28:54.057Z,75.77
2022-10-05T01:29:39.021Z,75.84
2022-10-05T01:30:13.532Z,76.08
2022-10-05T01:31:06.391Z,76.02
2022-10-05T01:31:59.416Z,76.00
2022-10-05T01:33:00.995Z,75.96
2022-10-05T01:33:44.035Z,75.66
2022-10-05T01:34:25.529Z,75.57
2022-10-05T01:35:24.589Z,75.54
2022-10-05T01:36:15.068Z,75.38
2022-10-05T01:36:58.713Z,75.29
2022-10-05T01:37:43.918Z,75.57
2022-10-05T01:38:35.965Z,75.62
2022-10-05T01:39:23.808Z,75.28
2022-10-05T01:40:31.345Z,75.35
2022-10-05T01:41:19.682Z,75.60
2022-10-05T01:41:57.378Z,75.44
2022-10-05T01:43:07.623Z,75.53
2022-10-05T01:44:02.397Z,75.25
2022-10-05T01:44:48.986Z,74.96
2022-10-05T01:45:44.454Z,75.50
2022-10-05T01:46:34.500Z,75.71
2022-10-05T01:47:13.125Z,75.65
2022-10-05T01:47:50.124Z,75.64
2022-10-05T01:48:46.633Z,75.65
2022-10-05T01:49:38.744Z,75.64
2022-10-05T01:50:28.751Z,75.25
2022-10-05T01:51:10.400Z,75.38
2022-10-05T01:51:48.066Z,75.50
2022-10-05T01:52:53.359Z,75.12
2022-10-05T01:53:35.874Z,75.39
2022-10-05T01:54:29.276Z,75.81
2022-10-05T01:55:33.459Z,76.08
2022-10-05T01:56:24.979Z,76.70
2022-10-05T01:57:05.756Z,76.83
2022-10-05T01:57:44.086Z,76.71
2022-10-05T01:58:37.443Z,76.16
2022-10-05T01:59:33.218Z,75.93
2022-10-05T02:00:12.383Z,75.62
2022-10-05T02:01:06.362Z,75.77
2022-10-05T02:01:41.371Z,75.57
2022-10-05T02:02:20.790Z,74.75
2022-10-05T02:03:14.114Z,75.12
2022-10-05T02:03:53.244Z,75.37
2022-10-05T02:05:02.816Z,75.34
2022-10-05T02:05:54.447Z,75.31
2022-10-05T02:06:32.520Z,75.42
2022-10-05T02:07:13.865Z,75.39
2022-10-05T02:07:52.684Z,75.69
2022-10-05T02:08:32.093Z,75.59
2022-10-05T02:09:26.695Z,75.94
2022-10-05T02:10:07.896Z,76.00
2022-10-05T02:10:52.344Z,75.84
2022-10-05T02:11:24.272Z,75.62
2022-10-05T02:12:05.357Z,75.72
2022-10-05T02:12:38.959Z,75.72
2022-10-05T02:13:21.038Z,75.48
2022-10-05T02:14:01.246Z,76.01
2022-10-05T02:14:41.328Z,76.08
2022-10-05T02:15:24.193Z,75.70
2022-10-05T02:16:03.403Z,75.42
2022-10-05T02:16:41.216Z,75.79
2022-10-05T02:17:35.310Z,76.26
2022-10-05T02:18:14.394Z,76.75
2022-10-05T02:19:21.554Z,76.75
2022-10-05T02:20:06.216Z,76.34
2022-10-05T02:20:42.352Z,75.81
2022-10-05T02:21:14.939Z,75.59
2022-10-05T02:22:10.592Z,75.25
2022-10-05T02:22:56.096Z,75.69
2022-10-05T02:23:33.629Z,76.05
2022-10-05T02:24:11.850Z,75.49
2022-10-05T02:24:58.771Z,75.43
2022-10-05T02:25:35.431Z,75.89
2022-10-05T02:26:11.277Z,76.04
2022-10-05T02:26:43.614Z,75.76
2022-10-05T02:27:23.294Z,75.82
2022-10-05T02:28:14.187Z,76.44
2022-10-05T02:28:56.342Z,76.82
2022-10-05T02:29:32.291Z,76.39
2022-10-05T02:30:10.432Z,75.92
2022-10-05T02:30:51.511Z,75.92
2022-10-05T02:31:40.465Z,75.58
2022-10-05T02:32:21.717Z,75.14
2022-10-05T02:33:03.112Z,75.08
2022-10-05T02:33:37.373Z,74.89
2022-10-05T02:34:26.937Z,74.75
2022-10-05T02:35:04.328Z,74.76
2022-10-05T02:35:37.063Z,75.05
2022-10-05T02:36:32.915Z,75.14
2022-10-05T02:37:33.038Z,75.18
2022-10-05T02:38:14.569Z,75.20
2022-10-05T02:39:11.323Z,74.85
2022-10-05T02:39:58.328Z,74.55
2022-10-05T02:40:56.184Z,74.40
2022-10-05T02:41:47.115Z,73.93
2022-10-05T02:42:24.802Z,74.04
2022-10-05T02:43:28.068Z,73.81
2022-10-05T02:44:18.618Z,73.99
2022-10-05T02:45:11.453Z,74.27
2022-10-05T02:46:09.671Z,74.26
2022-10-05T02:47:18.517Z,74.25
2022-10-05T02:47:59.225Z,74.26
2022-10-05T02:48:42.800Z,74.19
2022-10-05T02:49:23.302Z,74.23
2022-10-05T02:50:08.398Z,74.39
2022-10-05T02:51:09.733Z,74.59
2022-10-05T02:52:00.029Z,74.66
2022-10-05T02:53:00.641Z,74.34
2022-10-05T02:54:01.018Z,74.25
2022-10-05T02:54:44.856Z,73.88
2022-10-05T02:55:38.622Z,73.92
2022-10-05T02:56:16.640Z,74.06
2022-10-05T02:57:31.634Z,74.00
2022-10-05T02:58:23.938Z,74.62
2022-10-05T02:59:15.053Z,74.94
2022-10-05T03:00:02.650Z,75.64
2022-10-05T03:00:42.632Z,75.71
2022-10-05T03:01:28.088Z,75.37
2022-10-05T03:02:12.535Z,75.68
2022-10-05T03:02:52.563Z,76.11
2022-10-05T03:03:39.728Z,75.28
2022-10-05T03:04:14.603Z,75.29
2022-10-05T03:04:58.062Z,75.83
2022-10-05T03:05:37.598Z,76.36
2022-10-05T03:06:18.119Z,76.36
2022-10-05T03:07:12.017Z,76.54
2022-10-05T03:08:26.038Z,75.91
2022-10-05T03:09:05.889Z,76.19
2022-10-05T03:10:01.656Z,76.60
2022-10-05T03:10:52.592Z,76.29
2022-10-05T03:11:46.869Z,75.56
2022-10-05T03:12:36.337Z,75.60
2022-10-05T03:13:45.520Z,75.35
2022-10-05T03:14:30.325Z,75.65
2022-10-05T03:15:17.206Z,75.72
2022-10-05T03:16:21.917Z,75.60
2022-10-05T03:17:15.755Z,75.76
2022-10-05T03:18:01.682Z,75.86
2022-10-05T03:18:42.860Z,76.01
2022-10-05T03:19:38.884Z,76.06
2022-10-05T03:20:26.708Z,75.81
2022-10-05T03:21:22.718Z,75.50
2022-10-05T03:22:00.627Z,75.02
2022-10-05T03:23:17.203Z,75.05
2022-10-05T03:24:22.966Z,74.83
2022-10-05T03:25:03.444Z,75.08
2022-10-05T03:26:20.942Z,75.68
2022-10-05T03:26:52.850Z,75.95
2022-10-05T03:27:42.026Z,75.52
2022-10-05T03:28:29.204Z,75.02
2022-10-05T03:29:39.520Z,74.72
2022-10-05T03:30:21.768Z,74.89
2022-10-05T03:31:20.732Z,74.77
2022-10-05T03:32:18.499Z,75.04
2022-10-05T03:32:50.648Z,74.86
2022-10-05T03:33:34.350Z,74.82
2022-10-05T03:34:15.194Z,75.01
2022-10-05T03:35:04.117Z,74.45
2022-10-05T03:35:49.207Z,74.13
2022-10-05T03:36:43.038Z,74.22
2022-10-05T03:37:49.595Z,74.61
2022-10-05T03:38:43.606Z,75.22
2022-10-05T03:39:28.136Z,74.92
2022-10-05T03:40:16.018Z,74.94
2022-10-05T03:41:01.557Z,75.11
2022-10-05T03:41:50.127Z,75.10
2022-10-05T03:42:38.959Z,75.12
2022-10-05T03:43:40.017Z,75.10
2022-10-05T03:44:21.153Z,75.43
2022-10-05T03:45:28.456Z,76.10
2022-10-05T03:46:12.429Z,75.62
2022-10-05T03:47:14.492Z,75.88
2022-10-05T03:47:50.549Z,75.99
2022-10-05T03:48:28.585Z,75.84
2022-10-05T03:49:00.654Z,76.39
2022-10-05T03:49:45.461Z,76.34
2022-10-05T03:50:51.771Z,76.09
2022-10-05T03:51:29.819Z,75.98
2022-10-05T03:52:28.081Z,76.08
2022-10-05T03:53:25.386Z,75.72
2022-10-05T03:54:03.825Z,75.56
2022-10-05T03:54:39.481Z,75.33
2022-10-05T03:55:17.567Z,74.97
2022-10-05T03:55:59.693Z,74.77
2022-10-05T03:56:45.412Z,74.49
2022-10-05T03:57:24.697Z,75.03
2022-10-05T03:58:02.962Z,75.22
2022-10-05T03:58:57.913Z,75.66
2022-10-05T03:59:37.981Z,75.53
2022-10-05T04:00:17.920Z,75.53
2022-10-05T04:00:53.797Z,75.64
2022-10-05T04:01:58.852Z,75.32
2022-10-05T04:02:36.834Z,75.52
2022-10-05T04:03:12.290Z,76.08
2022-10-05T04:03:49.811Z,76.51
2022-10-05T04:04:37.390Z,76.32
2022-10-05T04:05:09.241Z,77.99
2022-10-05T04:05:52.111Z,88.90
2022-10-05T04:06:27.990Z,84.92
2022-10-05T04:07:01.569Z,83.09
2022-10-05T04:07:56.755Z,78.73
2022-10-05T04:08:45.389Z,76.11
2022-10-05T04:09:32.568Z,74.92
2022-10-05T04:10:14.600Z,75.41
2022-10-05T04:10:48.816Z,76.16
2022-10-05T04:11:30.515Z,76.72
2022-10-05T04:12:23.970Z,76.22
2022-10-05T04:13:09.983Z,76.35
2022-10-05T04:14:18.991Z,81.19
2022-10-05T04:14:57.282Z,76.19
2022-10-05T04:15:43.083Z,75.67
2022-10-05T04:16:40.792Z,75.22
2022-10-05T04:17:21.914Z,75.89
2022-10-05T04:18:09.834Z,76.00
2022-10-05T04:19:32.522Z,75.78
2022-10-05T04:20:14.868Z,75.26
2022-10-05T04:20:53.466Z,75.01
2022-10-05T04:21:32.447Z,75.65
2022-10-05T04:22:12.134Z,77.11
2022-10-05T04:23:12.885Z,77.72
2022-10-05T04:23:55.224Z,77.62
2022-10-05T04:24:49.389Z,76.95
2022-10-05T04:25:42.574Z,76.46
2022-10-05T04:26:22.832Z,76.57
2022-10-05T04:26:59.903Z,76.47
2022-10-05T04:27:39.339Z,76.50
2022-10-05T04:28:43.637Z,76.65
2022-10-05T04:29:45.927Z,76.60
2022-10-05T04:30:19.760Z,75.92
2022-10-05T04:30:54.185Z,76.28
2022-10-05T04:31:38.328Z,76.06
2022-10-05T04:32:31.281Z,75.41
2022-10-05T04:33:10.382Z,75.01
2022-10-05T04:33:47.084Z,75.02
2022-10-05T04:34:36.945Z,75.22
2022-10-05T04:35:21.912Z,75.78
2022-10-05T04:36:14.908Z,76.02
2022-10-05T04:37:05.219Z,76.61
2022-10-05T04:37:58.241Z,76.89
2022-10-05T04:38:41.942Z,77.10
2022-10-05T04:39:31.219Z,76.63
2022-10-05T04:40:20.836Z,76.22
2022-10-05T04:41:37.105Z,76.08
2022-10-05T04:42:36.016Z,75.83
2022-10-05T04:43:21.410Z,75.79
2022-10-05T04:44:05.006Z,75.83
2022-10-05T04:45:04.670Z,75.68
2022-10-05T04:46:02.808Z,75.69
2022-10-05T04:47:05.807Z,79.84
2022-10-05T04:48:16.639Z,78.04
2022-10-05T04:49:19.469Z,76.56
2022-10-05T04:50:07.802Z,86.98
2022-10-05T04:51:01.034Z,78.61
2022-10-05T04:51:56.016Z,77.92
2022-10-05T04:52:48.041Z,75.74
2022-10-05T04:53:39.363Z,74.07
2022-10-05T04:54:22.681Z,74.79
2022-10-05T04:55:36.060Z,74.88
2022-10-05T04:56:15.557Z,74.62
2022-10-05T04:56:55.535Z,74.63
2022-10-05T04:57:50.797Z,75.11
2022-10-05T04:58:55.083Z,75.20
2022-10-05T04:59:29.752Z,74.98
2022-10-05T05:00:05.862Z,74.95
2022-10-05T05:00:59.877Z,75.10
2022-10-05T05:01:52.757Z,75.06
2022-10-05T05:03:03.714Z,75.58
2022-10-05T05:04:05.999Z,75.95
2022-10-05T05:04:51.784Z,76.03
2022-10-05T05:05:58.627Z,76.41
2022-10-05T05:06:38.495Z,76.35
2022-10-05T05:07:55.034Z,76.76
2022-10-05T05:08:49.377Z,76.77
2022-10-05T05:09:42.390Z,76.35
2022-10-05T05:10:32.632Z,75.96
2022-10-05T05:11:43.894Z,75.93
2022-10-05T05:12:27.627Z,76.06
2022-10-05T05:13:09.569Z,76.41
2022-10-05T05:13:58.543Z,76.75
2022-10-05T05:14:52.269Z,77.05
2022-10-05T05:15:51.530Z,77.36
2022-10-05T05:16:38.323Z,77.80
2022-10-05T05:17:39.626Z,78.02
2022-10-05T05:18:49.010Z,77.74
2022-10-05T05:20:04.809Z,77.23
2022-10-05T05:21:00.027Z,77.64
2022-10-05T05:22:03.021Z,77.92
2022-10-05T05:23:02.153Z,77.14
2022-10-05T05:23:44.554Z,77.08
2022-10-05T05:24:34.551Z,76.95
2022-10-05T05:25:35.723Z,76.84
2022-10-05T05:26:19.000Z,77.52
2022-10-05T05:27:07.197Z,76.94
2022-10-05T05:27:58.334Z,76.08
2022-10-05T05:28:53.581Z,75.80
2022-10-05T05:29:48.849Z,75.35
2022-10-05T05:30:32.631Z,75.56
2022-10-05T05:31:27.753Z,74.53
2022-10-05T05:32:02.879Z,72.54
2022-10-05T05:33:12.165Z,71.11
2022-10-05T05:33:55.704Z,68.84
2022-10-05T05:34:59.330Z,65.26
2022-10-05T05:36:00.149Z,62.72
2022-10-05T05:36:56.126Z,60.54
2022-10-05T05:37:49.780Z,58.07
2022-10-05T05:38:41.424Z,56.38
2022-10-05T05:39:37.694Z,55.02
2022-10-05T05:40:20.345Z,53.98
2022-10-05T05:41:14.048Z,60.70
2022-10-05T05:42:30.790Z,55.87
2022-10-05T05:43:18.089Z,52.93
2022-10-05T05:44:10.774Z,51.23
2022-10-05T05:44:48.316Z,50.35
2022-10-05T05:46:07.651Z,48.25
2022-10-05T05:47:02.841Z,47.57
2022-10-05T05:47:43.079Z,46.80
2022-10-05T05:48:35.466Z,46.11
2022-10-05T05:49:22.384Z,45.56
2022-10-05T05:50:19.698Z,45.54
2022-10-05T05:51:27.586Z,45.18
2022-10-05T05:52:04.950Z,43.88
2022-10-05T05:52:46.120Z,43.18
2022-10-05T05:53:28.294Z,42.89
2022-10-05T05:54:20.531Z,42.38
2022-10-05T05:55:01.009Z,41.63
2022-10-05T05:55:41.143Z,41.21
2022-10-05T05:56:45.697Z,41.62
2022-10-05T05:57:26.268Z,41.88
2022-10-05T05:58:15.027Z,42.26
2022-10-05T05:58:54.596Z,42.18
2022-10-05T05:59:30.687Z,42.12
2022-10-05T06:00:37.208Z,43.28
2022-10-05T06:01:32.141Z,43.73
2022-10-05T06:02:11.960Z,44.01
2022-10-05T06:03:06.340Z,44.84
2022-10-05T06:04:07.714Z,46.62
2022-10-05T06:05:03.453Z,48.03
2022-10-05T06:05:59.888Z,48.22
2022-10-05T06:06:36.009Z,49.89
2022-10-05T06:07:16.349Z,50.79
2022-10-05T06:07:51.330Z,50.84
2022-10-05T06:08:44.841Z,51.88
2022-10-05T06:09:30.740Z,52.98
2022-10-05T06:10:11.807Z,53.36
2022-10-05T06:10:49.187Z,52.76
2022-10-05T06:11:23.073Z,52.61
2022-10-05T06:12:07.480Z,51.99
2022-10-05T06:12:45.938Z,52.49
2022-10-05T06:13:36.171Z,53.37
2022-10-05T06:14:28.498Z,55.30
2022-10-05T06:15:19.306Z,55.65
2022-10-05T06:15:59.793Z,56.61
2022-10-05T06:16:37.036Z,56.39
2022-10-05T06:17:29.051Z,57.05
2022-10-05T06:18:11.437Z,56.20
2022-10-05T06:18:48.085Z,56.17
2022-10-05T06:19:23.779Z,55.38
2022-10-05T06:20:04.720Z,55.19
2022-10-05T06:20:43.615Z,55.37
2022-10-05T06:21:43.639Z,55.46
2022-10-05T06:22:42.832Z,55.48
2022-10-05T06:23:25.567Z,55.32
2022-10-05T06:24:05.772Z,55.42
2022-10-05T06:25:05.607Z,55.95
2022-10-05T06:26:09.765Z,56.62
2022-10-05T06:27:16.456Z,56.55
2022-10-05T06:28:00.335Z,56.67
2022-10-05T06:28:32.434Z,57.17
2022-10-05T06:29:09.084Z,57.45
2022-10-05T06:29:51.416Z,57.78
2022-10-05T06:30:24.095Z,58.20
2022-10-05T06:31:21.208Z,58.83
2022-10-05T06:32:09.929Z,59.73
2022-10-05T06:33:23.695Z,60.53
2022-10-05T06:34:04.080Z,60.55
2022-10-05T06:34:52.242Z,61.26
2022-10-05T06:35:37.288Z,62.52
2022-10-05T06:36:14.931Z,62.42
2022-10-05T06:36:56.852Z,62.08
2022-10-05T06:37:50.340Z,61.77
2022-10-05T06:38:40.673Z,62.00
2022-10-05T06:40:09.292Z,61.72
2022-10-05T06:41:29.154Z,62.39
2022-10-05T06:42:25.553Z,62.42
2022-10-05T06:43:08.418Z,61.94
2022-10-05T06:43:42.035Z,62.24
2022-10-05T06:44:59.994Z,61.70
2022-10-05T06:45:40.921Z,61.54
2022-10-05T06:46:31.359Z,61.59
2022-10-05T06:47:03.293Z,61.46
2022-10-05T06:47:47.220Z,61.32
2022-10-05T06:48:45.279Z,60.65
2022-10-05T06:49:23.486Z,59.59
2022-10-05T06:50:05.593Z,59.13
2022-10-05T06:50:48.864Z,59.61
2022-10-05T06:51:47.246Z,61.39
2022-10-05T06:52:51.160Z,61.09
2022-10-05T06:53:34.195Z,60.20
2022-10-05T06:54:09.655Z,60.20
2022-10-05T06:54:56.876Z,60.61
2022-10-05T06:55:55.243Z,60.38
2022-10-05T06:56:55.909Z,60.53
2022-10-05T06:57:39.887Z,60.73
2022-10-05T06:58:36.148Z,59.25
2022-10-05T06:59:35.903Z,57.94
2022-10-05T07:00:17.580Z,57.69
2022-10-05T07:00:58.150Z,57.63
2022-10-05T07:01:30.304Z,57.58
2022-10-05T07:02:19.434Z,57.41
2022-10-05T07:03:15.412Z,57.86
2022-10-05T07:03:59.106Z,57.99
2022-10-05T07:04:45.550Z,58.35
2022-10-05T07:05:42.915Z,57.85
2022-10-05T07:06:57.827Z,58.42
2022-10-05T07:07:42.617Z,59.53
2022-10-05T07:08:29.017Z,60.02
2022-10-05T07:09:19.158Z,60.03
2022-10-05T07:10:10.353Z,60.13
2022-10-05T07:10:51.576Z,59.97
2022-10-05T07:11:23.247Z,59.88
2022-10-05T07:12:12.903Z,59.78
2022-10-05T07:13:18.562Z,59.37
2022-10-05T07:13:56.010Z,58.81
2022-10-05T07:15:04.315Z,59.23
2022-10-05T07:16:01.928Z,59.73
2022-10-05T07:16:59.857Z,58.78
2022-10-05T07:17:51.985Z,58.89
2022-10-05T07:18:30.360Z,58.50
2022-10-05T07:19:13.130Z,58.09
2022-10-05T07:19:55.907Z,58.11
2022-10-05T07:21:00.105Z,57.38
2022-10-05T07:21:46.186Z,57.62
2022-10-05T07:22:37.543Z,55.92
2022-10-05T07:23:25.092Z,55.69
2022-10-05T07:24:20.379Z,55.76
2022-10-05T07:25:00.530Z,55.20
2022-10-05T07:26:01.233Z,55.38
2022-10-05T07:27:09.755Z,55.20
2022-10-05T07:28:02.747Z,54.45
2022-10-05T07:28:53.819Z,53.93
2022-10-05T07:29:37.004Z,54.28
2022-10-05T07:30:14.217Z,54.33
2022-10-05T07:30:46.430Z,53.54
2022-10-05T07:31:33.558Z,53.28
2022-10-05T07:32:29.833Z,53.34
2022-10-05T07:33:13.762Z,52.89
2022-10-05T07:34:18.934Z,52.44
2022-10-05T07:34:58.688Z,52.19
2022-10-05T07:35:56.031Z,51.53
2022-10-05T07:36:55.081Z,51.18
2022-10-05T07:37:54.290Z,50.62
2022-10-05T07:38:41.154Z,50.77
2022-10-05T07:39:36.769Z,49.80
2022-10-05T07:40:32.379Z,49.76
2022-10-05T07:41:13.373Z,49.74
2022-10-05T07:41:52.567Z,50.17
2022-10-05T07:42:48.750Z,51.24
2022-10-05T07:43:40.265Z,51.18
2022-10-05T07:44:30.989Z,51.89
2022-10-05T07:45:21.166Z,51.54
2022-10-05T07:46:01.743Z,50.89
2022-10-05T07:47:04.631Z,50.79
2022-10-05T07:47:45.544Z,50.90
2022-10-05T07:48:21.696Z,50.56
2022-10-05T07:49:07.170Z,50.51
2022-10-05T07:49:54.542Z,50.51
2022-10-05T07:50:48.965Z,50.11
2022-10-05T07:51:29.853Z,50.47
2022-10-05T07:52:10.665Z,51.50
2022-10-05T07:52:56.568Z,50.95
2022-10-05T07:53:36.694Z,50.50
2022-10-05T07:54:19.170Z,49.34
2022-10-05T07:54:57.245Z,50.16
2022-10-05T07:55:41.243Z,50.89
2022-10-05T07:56:22.232Z,51.02
2022-10-05T07:57:19.145Z,50.94
2022-10-05T07:58:05.426Z,50.65
2022-10-05T07:58:44.153Z,50.17
2022-10-05T07:59:45.670Z,49.16
2022-10-05T08:00:28.979Z,49.63
2022-10-05T08:01:22.738Z,48.53
2022-10-05T08:02:05.409Z,49.32
2022-10-05T08:02:52.836Z,49.54
2022-10-05T08:03:56.924Z,49.58
2022-10-05T08:04:41.784Z,49.05
2022-10-05T08:05:27.507Z,49.42
2022-10-05T08:06:01.442Z,49.38
2022-10-05T08:06:45.845Z,49.75
2022-10-05T08:07:18.420Z,49.47
2022-10-05T08:08:13.314Z,49.38
2022-10-05T08:08:58.874Z,49.17
2022-10-05T08:09:51.393Z,49.36
2022-10-05T08:10:33.980Z,49.24
2022-10-05T08:11:28.789Z,48.21
2022-10-05T08:12:20.353Z,47.77
2022-10-05T08:13:03.061Z,48.61
2022-10-05T08:13:43.335Z,47.70
2022-10-05T08:14:57.054Z,47.08
2022-10-05T08:15:34.873Z,46.22
2022-10-05T08:16:14.564Z,46.61
2022-10-05T08:16:48.532Z,46.74
2022-10-05T08:17:38.078Z,46.96
2022-10-05T08:18:33.997Z,46.52
2022-10-05T08:19:21.340Z,47.47
2022-10-05T08:20:17.399Z,47.54
2022-10-05T08:20:57.875Z,46.55
2022-10-05T08:21:41.506Z,47.19
2022-10-05T08:22:23.523Z,46.80
2022-10-05T08:23:04.942Z,45.93
2022-10-05T08:23:48.496Z,45.95
2022-10-05T08:24:23.165Z,46.31
2022-10-05T08:25:00.317Z,46.68
2022-10-05T08:25:52.305Z,46.95
2022-10-05T08:26:55.104Z,46.15
2022-10-05T08:27:54.630Z,46.35
2022-10-05T08:28:35.441Z,48.31
2022-10-05T08:29:25.593Z,48.37
2022-10-05T08:30:04.532Z,49.17
2022-10-05T08:30:57.048Z,49.16
2022-10-05T08:31:39.569Z,48.24
2022-10-05T08:32:19.329Z,48.30
2022-10-05T08:33:01.955Z,49.21
2022-10-05T08:34:03.673Z,49.57
2022-10-05T08:34:38.578Z,49.37
2022-10-05T08:35:43.890Z,49.11
2022-10-05T08:36:19.180Z,48.51
2022-10-05T08:37:18.725Z,47.41
2022-10-05T08:37:51.006Z,46.94
2022-10-05T08:38:31.685Z,46.50
2022-10-05T08:39:16.455Z,45.83
2022-10-05T08:40:31.023Z,46.11
2022-10-05T08:41:08.369Z,46.33
2022-10-05T08:41:58.153Z,45.74
2022-10-05T08:42:32.711Z,46.00
2022-10-05T08:43:10.431Z,45.05
2022-10-05T08:44:06.853Z,45.21
2022-10-05T08:44:55.093Z,45.22
2022-10-05T08:46:02.610Z,45.64
2022-10-05T08:46:52.491Z,46.15
2022-10-05T08:47:50.238Z,46.26
2022-10-05T08:49:04.655Z,46.86
2022-10-05T08:49:45.429Z,47.19
2022-10-05T08:51:06.293Z,47.10
2022-10-05T08:52:02.427Z,47.79
2022-10-05T08:53:07.335Z,47.23
2022-10-05T08:54:09.979Z,47.19
2022-10-05T08:54:50.692Z,47.94
2022-10-05T08:55:43.552Z,47.74
2022-10-05T08:56:39.460Z,47.67
2022-10-05T08:57:28.996Z,48.15
2022-10-05T08:58:12.547Z,47.75
2022-10-05T08:59:04.824Z,46.93
2022-10-05T09:00:02.840Z,46.85
2022-10-05T09:00:51.624Z,46.16
2022-10-05T09:01:55.475Z,46.03
2022-10-05T09:03:02.776Z,46.92
2022-10-05T09:03:53.554Z,45.81
2022-10-05T09:04:47.034Z,45.13
2022-10-05T09:05:46.262Z,45.27
2022-10-05T09:06:22.566Z,45.83
2022-10-05T09:07:12.329Z,45.80
2022-10-05T09:08:11.958Z,45.69
2022-10-05T09:09:06.322Z,45.37
2022-10-05T09:10:29.538Z,45.37
2022-10-05T09:11:10.240Z,45.08
2022-10-05T09:12:05.170Z,45.76
2022-10-05T09:12:45.964Z,47.13
2022-10-05T09:13:18.518Z,47.09
2022-10-05T09:14:07.119Z,46.57
2022-10-05T09:15:13.671Z,47.45
2022-10-05T09:16:13.808Z,46.61
2022-10-05T09:17:18.585Z,45.49
2022-10-05T09:18:07.698Z,45.11
2022-10-05T09:19:13.477Z,43.83
2022-10-05T09:19:45.303Z,42.97
2022-10-05T09:20:30.383Z,42.94
2022-10-05T09:21:10.452Z,42.92
2022-10-05T09:22:05.030Z,43.22
2022-10-05T09:22:56.333Z,43.18
2022-10-05T09:23:42.829Z,42.64
2022-10-05T09:24:14.582Z,42.26
2022-10-05T09:25:20.966Z,42.40
2022-10-05T09:26:04.063Z,42.96
2022-10-05T09:26:58.327Z,43.33
2022-10-05T09:27:49.448Z,43.06
2022-10-05T09:28:29.131Z,43.81
2022-10-05T09:29:38.297Z,45.50
2022-10-05T09:30:29.511Z,45.60
2022-10-05T09:31:38.875Z,45.97
2022-10-05T09:32:32.216Z,46.10
2022-10-05T09:33:13.638Z,44.22
2022-10-05T09:34:06.525Z,43.88
2022-10-05T09:35:17.110Z,43.71
2022-10-05T09:36:02.084Z,43.04
2022-10-05T09:37:05.975Z,43.77
2022-10-05T09:38:01.023Z,43.35
2022-10-05T09:39:15.414Z,43.32
2022-10-05T09:40:01.105Z,43.10
2022-10-05T09:41:00.932Z,42.47
2022-10-05T09:41:58.716Z,43.02
2022-10-05T09:42:42.275Z,42.50
2022-10-05T09:43:22.953Z,43.11
2022-10-05T09:44:09.862Z,43.40
2022-10-05T09:44:41.914Z,43.14
2022-10-05T09:45:23.279Z,42.35
2022-10-05T09:46:35.430Z,42.95
2022-10-05T09:47:28.542Z,43.16
2022-10-05T09:48:27.161Z,42.95
2022-10-05T09:49:11.556Z,42.83
2022-10-05T09:50:05.035Z,43.10
2022-10-05T09:51:01.377Z,43.38
2022-10-05T09:51:36.268Z,43.29
2022-10-05T09:52:23.174Z,43.05
2022-10-05T09:53:19.985Z,43.04
2022-10-05T09:54:06.985Z,43.43
2022-10-05T09:55:02.888Z,42.70
2022-10-05T09:55:53.767Z,43.16
2022-10-05T09:56:37.011Z,43.45
2022-10-05T09:57:36.893Z,43.33
2022-10-05T09:58:48.202Z,43.26
2022-10-05T09:59:34.642Z,43.91
2022-10-05T10:00:22.100Z,43.41
2022-10-05T10:01:33.649Z,43.94
2022-10-05T10:02:21.597Z,44.73
2022-10-05T10:03:12.266Z,45.01
2022-10-05T10:04:12.274Z,45.02
2022-10-05T10:05:06.880Z,44.53
2022-10-05T10:06:00.051Z,44.94
2022-10-05T10:06:32.165Z,44.87
2022-10-05T10:07:35.453Z,45.00
2022-10-05T10:08:25.078Z,45.23
2022-10-05T10:09:18.523Z,45.19
2022-10-05T10:10:11.856Z,44.57
2022-10-05T10:11:36.099Z,44.35
2022-10-05T10:12:32.576Z,44.12
2022-10-05T10:13:39.612Z,45.33
2022-10-05T10:14:29.698Z,45.61
2022-10-05T10:15:10.207Z,44.00
2022-10-05T10:15:57.812Z,43.73
2022-10-05T10:16:44.173Z,42.35
2022-10-05T10:17:57.414Z,42.84
2022-10-05T10:19:08.549Z,42.78
2022-10-05T10:20:07.910Z,43.60
2022-10-05T10:20:57.489Z,45.01
2022-10-05T10:21:46.881Z,45.47
2022-10-05T10:22:27.810Z,45.30
2022-10-05T10:23:36.444Z,45.00
2022-10-05T10:24:22.268Z,43.92